sensor_id;sensor_type;location;lat;lon;timestamp;temperature;humidity
42141;DHT22;27809;51.864;5.646;2023-02-28T00:00:17;-0.60;99.90
42141;DHT22;27809;51.864;5.646;2023-02-28T00:02:44;-0.70;99.90
42141;DHT22;27809;51.864;5.646;2023-02-28T00:05:11;-0.60;99.90
42141;DHT22;27809;51.864;5.646;2023-02-28T00:07:37;-0.60;99.90
42141;DHT22;27809;51.864;5.646;2023-02-28T00:10:04;-0.70;99.90
42141;DHT22;27809;51.864;5.646;2023-02-28T00:12:29;-0.80;99.90
42141;DHT22;27809;51.864;5.646;2023-02-28T00:14:55;-0.80;99.90
42141;DHT22;27809;51.864;5.646;2023-02-28T00:17:20;-0.80;99.90
42141;DHT22;27809;51.864;5.646;2023-02-28T00:19:48;-0.80;99.90
42141;DHT22;27809;51.864;5.646;2023-02-28T00:22:15;-0.70;99.90
42141;DHT22;27809;51.864;5.646;2023-02-28T00:24:40;-0.60;99.90
42141;DHT22;27809;51.864;5.646;2023-02-28T00:27:06;-0.50;99.90
42141;DHT22;27809;51.864;5.646;2023-02-28T00:29:31;-0.40;99.90
42141;DHT22;27809;51.864;5.646;2023-02-28T00:31:57;-0.30;99.90
42141;DHT22;27809;51.864;5.646;2023-02-28T00:34:22;-0.20;99.90
42141;DHT22;27809;51.864;5.646;2023-02-28T00:36:48;-0.10;99.90
42141;DHT22;27809;51.864;5.646;2023-02-28T00:39:16;0.00;99.90
42141;DHT22;27809;51.864;5.646;2023-02-28T00:41:42;0.10;99.90
42141;DHT22;27809;51.864;5.646;2023-02-28T00:44:08;0.20;99.90
42141;DHT22;27809;51.864;5.646;2023-02-28T00:46:33;0.00;99.90
42141;DHT22;27809;51.864;5.646;2023-02-28T00:48:59;0.00;99.90
42141;DHT22;27809;51.864;5.646;2023-02-28T00:51:24;0.00;99.90
42141;DHT22;27809;51.864;5.646;2023-02-28T00:53:50;0.00;99.90
42141;DHT22;27809;51.864;5.646;2023-02-28T00:56:15;0.10;99.90
42141;DHT22;27809;51.864;5.646;2023-02-28T00:58:41;0.00;99.90
42141;DHT22;27809;51.864;5.646;2023-02-28T01:01:06;0.10;99.90
42141;DHT22;27809;51.864;5.646;2023-02-28T01:03:32;0.10;99.90
42141;DHT22;27809;51.864;5.646;2023-02-28T01:05:58;0.20;99.90
42141;DHT22;27809;51.864;5.646;2023-02-28T01:08:24;0.30;99.90
42141;DHT22;27809;51.864;5.646;2023-02-28T01:10:51;0.40;99.90
42141;DHT22;27809;51.864;5.646;2023-02-28T01:13:17;0.50;99.90
42141;DHT22;27809;51.864;5.646;2023-02-28T01:15:50;0.60;99.90
42141;DHT22;27809;51.864;5.646;2023-02-28T01:18:16;0.50;99.90
42141;DHT22;27809;51.864;5.646;2023-02-28T01:20:42;0.60;99.90
42141;DHT22;27809;51.864;5.646;2023-02-28T01:23:08;0.70;99.90
42141;DHT22;27809;51.864;5.646;2023-02-28T01:25:37;0.90;99.90
42141;DHT22;27809;51.864;5.646;2023-02-28T01:28:02;1.00;99.90
42141;DHT22;27809;51.864;5.646;2023-02-28T01:30:28;1.10;99.90
42141;DHT22;27809;51.864;5.646;2023-02-28T01:32:54;1.00;99.90
42141;DHT22;27809;51.864;5.646;2023-02-28T01:35:19;0.90;99.90
42141;DHT22;27809;51.864;5.646;2023-02-28T01:37:45;0.90;99.90
42141;DHT22;27809;51.864;5.646;2023-02-28T01:40:11;0.90;99.90
42141;DHT22;27809;51.864;5.646;2023-02-28T01:42:37;1.00;99.90
42141;DHT22;27809;51.864;5.646;2023-02-28T01:45:23;1.00;99.90
42141;DHT22;27809;51.864;5.646;2023-02-28T01:47:52;1.10;99.90
42141;DHT22;27809;51.864;5.646;2023-02-28T01:50:22;1.20;99.90
42141;DHT22;27809;51.864;5.646;2023-02-28T01:52:48;1.10;99.90
42141;DHT22;27809;51.864;5.646;2023-02-28T01:55:16;1.00;99.90
42141;DHT22;27809;51.864;5.646;2023-02-28T01:57:48;0.90;99.90
42141;DHT22;27809;51.864;5.646;2023-02-28T02:00:17;0.80;99.90
42141;DHT22;27809;51.864;5.646;2023-02-28T02:02:46;0.70;99.90
42141;DHT22;27809;51.864;5.646;2023-02-28T02:05:17;0.60;99.90
42141;DHT22;27809;51.864;5.646;2023-02-28T02:07:45;0.60;99.90
42141;DHT22;27809;51.864;5.646;2023-02-28T02:10:20;0.60;99.90
42141;DHT22;27809;51.864;5.646;2023-02-28T02:13:11;0.60;99.90
42141;DHT22;27809;51.864;5.646;2023-02-28T02:18:35;0.80;99.90
42141;DHT22;27809;51.864;5.646;2023-02-28T02:24:26;0.90;99.90
42141;DHT22;27809;51.864;5.646;2023-02-28T02:27:27;0.90;99.90
42141;DHT22;27809;51.864;5.646;2023-02-28T02:38:39;0.70;99.90
42141;DHT22;27809;51.864;5.646;2023-02-28T02:47:08;0.80;99.90
42141;DHT22;27809;51.864;5.646;2023-02-28T02:49:38;0.80;99.90
42141;DHT22;27809;51.864;5.646;2023-02-28T02:52:08;0.80;99.90
42141;DHT22;27809;51.864;5.646;2023-02-28T02:54:40;0.90;99.90
42141;DHT22;27809;51.864;5.646;2023-02-28T02:57:15;1.00;99.90
42141;DHT22;27809;51.864;5.646;2023-02-28T02:59:44;1.20;99.90
42141;DHT22;27809;51.864;5.646;2023-02-28T03:02:12;1.30;99.90
42141;DHT22;27809;51.864;5.646;2023-02-28T03:04:43;1.40;99.90
42141;DHT22;27809;51.864;5.646;2023-02-28T03:07:10;1.40;99.90
42141;DHT22;27809;51.864;5.646;2023-02-28T03:09:36;1.30;99.90
42141;DHT22;27809;51.864;5.646;2023-02-28T03:12:02;1.30;99.90
42141;DHT22;27809;51.864;5.646;2023-02-28T03:14:42;1.40;99.90
42141;DHT22;27809;51.864;5.646;2023-02-28T03:20:41;1.50;99.90
42141;DHT22;27809;51.864;5.646;2023-02-28T03:23:16;1.60;99.90
42141;DHT22;27809;51.864;5.646;2023-02-28T03:26:03;1.60;99.90
42141;DHT22;27809;51.864;5.646;2023-02-28T03:28:50;1.70;99.90
42141;DHT22;27809;51.864;5.646;2023-02-28T03:31:33;1.70;99.90
42141;DHT22;27809;51.864;5.646;2023-02-28T03:34:12;1.70;99.90
42141;DHT22;27809;51.864;5.646;2023-02-28T03:36:42;1.60;99.90
42141;DHT22;27809;51.864;5.646;2023-02-28T03:39:16;1.70;99.90
42141;DHT22;27809;51.864;5.646;2023-02-28T03:41:52;1.70;99.90
42141;DHT22;27809;51.864;5.646;2023-02-28T03:44:25;1.70;99.90
42141;DHT22;27809;51.864;5.646;2023-02-28T03:49:56;1.70;99.90
42141;DHT22;27809;51.864;5.646;2023-02-28T03:52:26;1.70;99.90
42141;DHT22;27809;51.864;5.646;2023-02-28T03:54:58;1.80;99.90
42141;DHT22;27809;51.864;5.646;2023-02-28T03:57:27;1.70;99.90
42141;DHT22;27809;51.864;5.646;2023-02-28T04:00:03;1.70;99.90
42141;DHT22;27809;51.864;5.646;2023-02-28T04:02:31;1.80;99.90
42141;DHT22;27809;51.864;5.646;2023-02-28T04:04:57;1.70;99.90
42141;DHT22;27809;51.864;5.646;2023-02-28T04:07:22;1.70;99.90
42141;DHT22;27809;51.864;5.646;2023-02-28T04:09:48;1.70;99.90
42141;DHT22;27809;51.864;5.646;2023-02-28T04:12:13;1.70;99.90
42141;DHT22;27809;51.864;5.646;2023-02-28T04:14:39;1.70;99.90
42141;DHT22;27809;51.864;5.646;2023-02-28T04:17:04;1.80;99.90
42141;DHT22;27809;51.864;5.646;2023-02-28T04:19:30;1.70;99.90
42141;DHT22;27809;51.864;5.646;2023-02-28T04:21:55;1.70;99.90
42141;DHT22;27809;51.864;5.646;2023-02-28T04:24:23;1.70;99.90
42141;DHT22;27809;51.864;5.646;2023-02-28T04:26:51;1.50;99.90
42141;DHT22;27809;51.864;5.646;2023-02-28T04:29:35;1.50;99.90
42141;DHT22;27809;51.864;5.646;2023-02-28T04:32:01;1.40;99.90
42141;DHT22;27809;51.864;5.646;2023-02-28T04:34:29;1.30;99.90
42141;DHT22;27809;51.864;5.646;2023-02-28T04:36:55;1.30;99.90
42141;DHT22;27809;51.864;5.646;2023-02-28T04:39:22;1.30;99.90
42141;DHT22;27809;51.864;5.646;2023-02-28T04:41:48;1.10;99.90
42141;DHT22;27809;51.864;5.646;2023-02-28T04:44:14;1.10;99.90
42141;DHT22;27809;51.864;5.646;2023-02-28T04:46:40;1.20;99.90
42141;DHT22;27809;51.864;5.646;2023-02-28T04:49:06;1.30;99.90
42141;DHT22;27809;51.864;5.646;2023-02-28T04:51:31;1.30;99.90
42141;DHT22;27809;51.864;5.646;2023-02-28T04:53:57;1.40;99.90
42141;DHT22;27809;51.864;5.646;2023-02-28T04:56:22;1.40;99.90
42141;DHT22;27809;51.864;5.646;2023-02-28T04:58:48;1.30;99.90
42141;DHT22;27809;51.864;5.646;2023-02-28T05:03:46;1.30;99.90
42141;DHT22;27809;51.864;5.646;2023-02-28T05:06:12;1.30;99.90
42141;DHT22;27809;51.864;5.646;2023-02-28T05:08:38;1.30;99.90
42141;DHT22;27809;51.864;5.646;2023-02-28T05:11:05;1.30;99.90
42141;DHT22;27809;51.864;5.646;2023-02-28T05:13:31;1.30;99.90
42141;DHT22;27809;51.864;5.646;2023-02-28T05:15:56;1.30;99.90
42141;DHT22;27809;51.864;5.646;2023-02-28T05:18:22;1.40;99.90
42141;DHT22;27809;51.864;5.646;2023-02-28T05:20:48;1.40;99.90
42141;DHT22;27809;51.864;5.646;2023-02-28T05:23:22;1.20;99.90
42141;DHT22;27809;51.864;5.646;2023-02-28T05:25:48;1.40;99.90
42141;DHT22;27809;51.864;5.646;2023-02-28T05:28:13;1.40;99.90
42141;DHT22;27809;51.864;5.646;2023-02-28T05:30:39;1.50;99.90
42141;DHT22;27809;51.864;5.646;2023-02-28T05:33:05;1.40;99.90
42141;DHT22;27809;51.864;5.646;2023-02-28T05:35:31;1.40;99.90
42141;DHT22;27809;51.864;5.646;2023-02-28T05:37:56;1.40;99.90
42141;DHT22;27809;51.864;5.646;2023-02-28T05:40:22;1.40;99.90
42141;DHT22;27809;51.864;5.646;2023-02-28T05:42:49;1.40;99.90
42141;DHT22;27809;51.864;5.646;2023-02-28T05:45:15;1.50;99.90
42141;DHT22;27809;51.864;5.646;2023-02-28T05:47:40;1.40;99.90
42141;DHT22;27809;51.864;5.646;2023-02-28T05:50:06;1.40;99.90
42141;DHT22;27809;51.864;5.646;2023-02-28T05:52:32;1.40;99.90
42141;DHT22;27809;51.864;5.646;2023-02-28T05:54:58;1.40;99.90
42141;DHT22;27809;51.864;5.646;2023-02-28T05:57:24;1.40;99.90
42141;DHT22;27809;51.864;5.646;2023-02-28T05:59:50;1.40;99.90
42141;DHT22;27809;51.864;5.646;2023-02-28T06:02:16;1.30;99.90
42141;DHT22;27809;51.864;5.646;2023-02-28T06:04:43;1.20;99.90
42141;DHT22;27809;51.864;5.646;2023-02-28T06:07:09;1.20;99.90
42141;DHT22;27809;51.864;5.646;2023-02-28T06:09:35;1.30;99.90
42141;DHT22;27809;51.864;5.646;2023-02-28T06:12:01;1.40;99.90
42141;DHT22;27809;51.864;5.646;2023-02-28T06:14:29;1.40;99.90
42141;DHT22;27809;51.864;5.646;2023-02-28T06:16:56;1.40;99.90
42141;DHT22;27809;51.864;5.646;2023-02-28T06:19:22;1.60;99.90
42141;DHT22;27809;51.864;5.646;2023-02-28T06:21:49;1.50;99.90
42141;DHT22;27809;51.864;5.646;2023-02-28T06:24:16;1.50;99.90
42141;DHT22;27809;51.864;5.646;2023-02-28T06:26:41;1.40;99.90
42141;DHT22;27809;51.864;5.646;2023-02-28T06:29:07;1.50;99.90
42141;DHT22;27809;51.864;5.646;2023-02-28T06:31:32;1.50;99.90
42141;DHT22;27809;51.864;5.646;2023-02-28T06:33:58;1.50;99.90
42141;DHT22;27809;51.864;5.646;2023-02-28T06:36:23;1.60;99.90
42141;DHT22;27809;51.864;5.646;2023-02-28T06:38:49;1.50;99.90
42141;DHT22;27809;51.864;5.646;2023-02-28T06:41:20;1.50;99.90
42141;DHT22;27809;51.864;5.646;2023-02-28T06:43:46;1.60;99.90
42141;DHT22;27809;51.864;5.646;2023-02-28T06:46:13;1.60;99.90
42141;DHT22;27809;51.864;5.646;2023-02-28T06:48:39;1.80;99.90
42141;DHT22;27809;51.864;5.646;2023-02-28T06:51:07;1.90;98.80
42141;DHT22;27809;51.864;5.646;2023-02-28T06:53:33;1.80;96.30
42141;DHT22;27809;51.864;5.646;2023-02-28T06:55:58;1.90;97.50
42141;DHT22;27809;51.864;5.646;2023-02-28T06:58:24;2.00;98.10
42141;DHT22;27809;51.864;5.646;2023-02-28T07:00:51;2.00;99.10
42141;DHT22;27809;51.864;5.646;2023-02-28T07:03:17;2.00;99.40
42141;DHT22;27809;51.864;5.646;2023-02-28T07:05:44;1.90;99.90
42141;DHT22;27809;51.864;5.646;2023-02-28T07:08:09;1.90;99.90
42141;DHT22;27809;51.864;5.646;2023-02-28T07:10:37;2.00;98.40
42141;DHT22;27809;51.864;5.646;2023-02-28T07:13:04;2.10;97.60
42141;DHT22;27809;51.864;5.646;2023-02-28T07:15:29;2.20;99.50
42141;DHT22;27809;51.864;5.646;2023-02-28T07:17:55;2.40;95.50
42141;DHT22;27809;51.864;5.646;2023-02-28T07:20:22;2.40;95.60
42141;DHT22;27809;51.864;5.646;2023-02-28T07:22:48;2.40;94.70
42141;DHT22;27809;51.864;5.646;2023-02-28T07:25:21;2.50;93.10
42141;DHT22;27809;51.864;5.646;2023-02-28T07:27:46;2.60;92.90
42141;DHT22;27809;51.864;5.646;2023-02-28T07:30:12;2.70;92.20
42141;DHT22;27809;51.864;5.646;2023-02-28T07:32:38;2.80;92.90
42141;DHT22;27809;51.864;5.646;2023-02-28T07:35:04;2.90;91.50
42141;DHT22;27809;51.864;5.646;2023-02-28T07:37:29;3.00;91.50
42141;DHT22;27809;51.864;5.646;2023-02-28T07:39:56;3.20;90.70
42141;DHT22;27809;51.864;5.646;2023-02-28T07:42:22;3.10;78.00
42141;DHT22;27809;51.864;5.646;2023-02-28T07:44:48;3.20;79.30
42141;DHT22;27809;51.864;5.646;2023-02-28T07:47:13;3.20;72.20
42141;DHT22;27809;51.864;5.646;2023-02-28T07:49:39;3.10;75.10
42141;DHT22;27809;51.864;5.646;2023-02-28T07:52:06;3.20;70.20
42141;DHT22;27809;51.864;5.646;2023-02-28T07:54:32;3.20;61.90
42141;DHT22;27809;51.864;5.646;2023-02-28T07:56:58;3.50;62.40
42141;DHT22;27809;51.864;5.646;2023-02-28T07:59:23;3.40;62.50
42141;DHT22;27809;51.864;5.646;2023-02-28T08:01:49;3.50;56.90
42141;DHT22;27809;51.864;5.646;2023-02-28T08:04:16;3.40;52.60
42141;DHT22;27809;51.864;5.646;2023-02-28T08:06:42;3.60;48.80
42141;DHT22;27809;51.864;5.646;2023-02-28T08:09:08;3.70;39.90
42141;DHT22;27809;51.864;5.646;2023-02-28T08:11:34;6.00;40.40
42141;DHT22;27809;51.864;5.646;2023-02-28T08:13:59;4.90;30.80
42141;DHT22;27809;51.864;5.646;2023-02-28T08:16:25;4.80;31.80
42141;DHT22;27809;51.864;5.646;2023-02-28T08:18:53;4.70;27.90
42141;DHT22;27809;51.864;5.646;2023-02-28T08:21:19;4.70;29.10
42141;DHT22;27809;51.864;5.646;2023-02-28T08:23:49;5.00;28.50
42141;DHT22;27809;51.864;5.646;2023-02-28T08:26:16;5.10;25.00
42141;DHT22;27809;51.864;5.646;2023-02-28T08:28:42;5.10;21.00
42141;DHT22;27809;51.864;5.646;2023-02-28T08:31:13;4.50;18.00
42141;DHT22;27809;51.864;5.646;2023-02-28T08:33:40;4.80;14.30
42141;DHT22;27809;51.864;5.646;2023-02-28T08:36:07;5.40;14.50
42141;DHT22;27809;51.864;5.646;2023-02-28T08:38:35;5.50;13.20
42141;DHT22;27809;51.864;5.646;2023-02-28T08:41:04;8.70;85.70
42141;DHT22;27809;51.864;5.646;2023-02-28T08:43:33;8.50;4.60
42141;DHT22;27809;51.864;5.646;2023-02-28T08:45:59;8.50;4.30
42141;DHT22;27809;51.864;5.646;2023-02-28T08:48:26;8.50;1.60
42141;DHT22;27809;51.864;5.646;2023-02-28T08:51:03;8.80;1.30
42141;DHT22;27809;51.864;5.646;2023-02-28T08:53:29;8.90;2.50
42141;DHT22;27809;51.864;5.646;2023-02-28T08:56:03;10.40;1.00
42141;DHT22;27809;51.864;5.646;2023-02-28T08:58:29;9.90;1.00
42141;DHT22;27809;51.864;5.646;2023-02-28T09:00:55;9.00;1.00
42141;DHT22;27809;51.864;5.646;2023-02-28T09:03:21;9.70;1.00
42141;DHT22;27809;51.864;5.646;2023-02-28T09:05:54;9.40;1.00
42141;DHT22;27809;51.864;5.646;2023-02-28T09:08:20;10.20;1.00
42141;DHT22;27809;51.864;5.646;2023-02-28T09:10:45;10.60;1.00
42141;DHT22;27809;51.864;5.646;2023-02-28T09:13:11;11.40;1.00
42141;DHT22;27809;51.864;5.646;2023-02-28T09:15:39;11.90;1.00
42141;DHT22;27809;51.864;5.646;2023-02-28T09:18:05;12.20;1.00
42141;DHT22;27809;51.864;5.646;2023-02-28T09:20:30;12.30;1.00
42141;DHT22;27809;51.864;5.646;2023-02-28T09:22:57;12.50;1.00
42141;DHT22;27809;51.864;5.646;2023-02-28T09:25:22;11.40;1.00
42141;DHT22;27809;51.864;5.646;2023-02-28T09:27:48;12.00;1.00
42141;DHT22;27809;51.864;5.646;2023-02-28T09:30:14;10.40;1.00
42141;DHT22;27809;51.864;5.646;2023-02-28T09:32:40;12.20;1.00
42141;DHT22;27809;51.864;5.646;2023-02-28T09:35:06;12.30;1.00
42141;DHT22;27809;51.864;5.646;2023-02-28T09:37:31;12.70;1.00
42141;DHT22;27809;51.864;5.646;2023-02-28T09:39:57;11.10;1.00
42141;DHT22;27809;51.864;5.646;2023-02-28T09:42:31;12.60;1.00
42141;DHT22;27809;51.864;5.646;2023-02-28T09:45:06;12.10;1.00
42141;DHT22;27809;51.864;5.646;2023-02-28T09:47:41;12.70;1.00
42141;DHT22;27809;51.864;5.646;2023-02-28T09:50:22;12.50;1.00
42141;DHT22;27809;51.864;5.646;2023-02-28T09:52:50;12.80;1.00
42141;DHT22;27809;51.864;5.646;2023-02-28T09:57:48;11.90;1.00
42141;DHT22;27809;51.864;5.646;2023-02-28T10:00:20;12.20;1.00
42141;DHT22;27809;51.864;5.646;2023-02-28T10:08:28;12.30;1.00
42141;DHT22;27809;51.864;5.646;2023-02-28T10:11:00;12.10;1.00
42141;DHT22;27809;51.864;5.646;2023-02-28T10:16:06;12.40;1.00
42141;DHT22;27809;51.864;5.646;2023-02-28T10:19:06;12.50;1.00
42141;DHT22;27809;51.864;5.646;2023-02-28T10:21:28;13.00;1.00
42141;DHT22;27809;51.864;5.646;2023-02-28T10:24:03;12.00;1.00
42141;DHT22;27809;51.864;5.646;2023-02-28T10:26:31;13.20;1.00
42141;DHT22;27809;51.864;5.646;2023-02-28T10:28:57;12.90;1.00
42141;DHT22;27809;51.864;5.646;2023-02-28T10:31:23;11.40;1.00
42141;DHT22;27809;51.864;5.646;2023-02-28T10:33:48;15.10;9.20
42141;DHT22;27809;51.864;5.646;2023-02-28T10:36:17;19.30;1.00
42141;DHT22;27809;51.864;5.646;2023-02-28T10:38:44;21.70;1.00
42141;DHT22;27809;51.864;5.646;2023-02-28T10:41:15;22.40;1.00
42141;DHT22;27809;51.864;5.646;2023-02-28T10:43:43;17.30;1.00
42141;DHT22;27809;51.864;5.646;2023-02-28T10:48:44;19.10;1.00
42141;DHT22;27809;51.864;5.646;2023-02-28T10:51:16;16.30;1.00
42141;DHT22;27809;51.864;5.646;2023-02-28T10:58:48;11.90;1.00
42141;DHT22;27809;51.864;5.646;2023-02-28T11:01:20;12.90;1.00
42141;DHT22;27809;51.864;5.646;2023-02-28T11:03:46;12.00;1.00
42141;DHT22;27809;51.864;5.646;2023-02-28T11:06:24;11.80;1.00
42141;DHT22;27809;51.864;5.646;2023-02-28T11:08:53;13.00;1.00
42141;DHT22;27809;51.864;5.646;2023-02-28T11:11:20;12.10;1.00
42141;DHT22;27809;51.864;5.646;2023-02-28T11:13:47;13.10;1.00
42141;DHT22;27809;51.864;5.646;2023-02-28T11:16:15;11.90;1.00
42141;DHT22;27809;51.864;5.646;2023-02-28T11:18:48;12.20;1.00
42141;DHT22;27809;51.864;5.646;2023-02-28T11:23:45;12.70;1.00
42141;DHT22;27809;51.864;5.646;2023-02-28T11:26:36;12.40;1.00
42141;DHT22;27809;51.864;5.646;2023-02-28T11:29:18;11.10;1.00
42141;DHT22;27809;51.864;5.646;2023-02-28T11:32:01;11.70;1.00
42141;DHT22;27809;51.864;5.646;2023-02-28T11:34:27;11.50;1.00
42141;DHT22;27809;51.864;5.646;2023-02-28T11:36:54;12.50;1.00
42141;DHT22;27809;51.864;5.646;2023-02-28T11:39:22;11.90;1.00
42141;DHT22;27809;51.864;5.646;2023-02-28T11:44:25;13.30;1.00
42141;DHT22;27809;51.864;5.646;2023-02-28T11:47:17;12.70;1.00
42141;DHT22;27809;51.864;5.646;2023-02-28T11:52:55;10.00;1.00
42141;DHT22;27809;51.864;5.646;2023-02-28T11:55:28;9.30;1.00
42141;DHT22;27809;51.864;5.646;2023-02-28T12:00:56;11.40;1.00
42141;DHT22;27809;51.864;5.646;2023-02-28T12:06:36;9.60;1.00
42141;DHT22;27809;51.864;5.646;2023-02-28T12:09:32;10.20;1.00
42141;DHT22;27809;51.864;5.646;2023-02-28T12:12:21;9.60;1.00
42141;DHT22;27809;51.864;5.646;2023-02-28T12:15:16;9.40;1.00
42141;DHT22;27809;51.864;5.646;2023-02-28T12:20:30;9.90;1.00
42141;DHT22;27809;51.864;5.646;2023-02-28T12:26:36;9.20;1.00
42141;DHT22;27809;51.864;5.646;2023-02-28T12:29:17;9.60;1.00
42141;DHT22;27809;51.864;5.646;2023-02-28T12:31:59;9.70;1.00
42141;DHT22;27809;51.864;5.646;2023-02-28T12:34:33;9.50;1.00
42141;DHT22;27809;51.864;5.646;2023-02-28T12:37:06;8.70;1.00
42141;DHT22;27809;51.864;5.646;2023-02-28T12:39:37;9.90;1.00
42141;DHT22;27809;51.864;5.646;2023-02-28T12:42:11;10.70;1.00
42141;DHT22;27809;51.864;5.646;2023-02-28T12:44:56;11.00;1.00
42141;DHT22;27809;51.864;5.646;2023-02-28T12:47:23;11.10;1.00
42141;DHT22;27809;51.864;5.646;2023-02-28T12:49:54;10.90;1.00
42141;DHT22;27809;51.864;5.646;2023-02-28T12:52:41;12.20;1.00
42141;DHT22;27809;51.864;5.646;2023-02-28T12:58:31;10.80;1.00
42141;DHT22;27809;51.864;5.646;2023-02-28T13:04:21;11.60;1.00
42141;DHT22;27809;51.864;5.646;2023-02-28T13:07:05;11.40;1.00
42141;DHT22;27809;51.864;5.646;2023-02-28T13:09:33;12.20;1.00
42141;DHT22;27809;51.864;5.646;2023-02-28T13:11:59;12.90;1.00
42141;DHT22;27809;51.864;5.646;2023-02-28T13:14:37;12.70;1.00
42141;DHT22;27809;51.864;5.646;2023-02-28T13:19:34;12.00;1.00
42141;DHT22;27809;51.864;5.646;2023-02-28T13:22:01;12.80;1.00
42141;DHT22;27809;51.864;5.646;2023-02-28T13:24:48;13.10;1.00
42141;DHT22;27809;51.864;5.646;2023-02-28T13:29:41;13.60;1.00
42141;DHT22;27809;51.864;5.646;2023-02-28T13:34:38;12.00;1.00
42141;DHT22;27809;51.864;5.646;2023-02-28T13:39:46;12.10;1.00
42141;DHT22;27809;51.864;5.646;2023-02-28T13:47:42;10.80;1.00
42141;DHT22;27809;51.864;5.646;2023-02-28T13:50:29;11.40;1.00
42141;DHT22;27809;51.864;5.646;2023-02-28T14:09:15;10.20;1.00
42141;DHT22;27809;51.864;5.646;2023-02-28T14:11:44;12.30;1.00
42141;DHT22;27809;51.864;5.646;2023-02-28T14:17:12;13.50;1.00
42141;DHT22;27809;51.864;5.646;2023-02-28T14:19:39;13.40;1.00
42141;DHT22;27809;51.864;5.646;2023-02-28T14:22:32;13.80;1.00
42141;DHT22;27809;51.864;5.646;2023-02-28T14:25:24;12.70;1.00
42141;DHT22;27809;51.864;5.646;2023-02-28T14:30:57;12.30;1.00
42141;DHT22;27809;51.864;5.646;2023-02-28T14:36:33;12.60;1.00
42141;DHT22;27809;51.864;5.646;2023-02-28T14:41:38;10.50;1.00
42141;DHT22;27809;51.864;5.646;2023-02-28T14:44:19;10.30;1.00
42141;DHT22;27809;51.864;5.646;2023-02-28T14:46:49;9.80;1.00
42141;DHT22;27809;51.864;5.646;2023-02-28T14:52:07;9.80;1.00
42141;DHT22;27809;51.864;5.646;2023-02-28T14:54:39;9.10;1.00
42141;DHT22;27809;51.864;5.646;2023-02-28T14:57:06;8.60;1.00
42141;DHT22;27809;51.864;5.646;2023-02-28T14:59:34;8.50;1.00
42141;DHT22;27809;51.864;5.646;2023-02-28T15:02:22;8.30;1.00
42141;DHT22;27809;51.864;5.646;2023-02-28T15:05:00;8.00;1.00
42141;DHT22;27809;51.864;5.646;2023-02-28T15:07:26;8.00;1.00
42141;DHT22;27809;51.864;5.646;2023-02-28T15:10:21;7.50;1.00
42141;DHT22;27809;51.864;5.646;2023-02-28T15:13:02;7.60;1.00
42141;DHT22;27809;51.864;5.646;2023-02-28T15:18:24;7.20;1.00
42141;DHT22;27809;51.864;5.646;2023-02-28T15:20:51;7.20;1.00
42141;DHT22;27809;51.864;5.646;2023-02-28T15:23:18;7.10;1.00
42141;DHT22;27809;51.864;5.646;2023-02-28T15:25:44;7.10;1.00
42141;DHT22;27809;51.864;5.646;2023-02-28T15:28:16;7.30;1.00
42141;DHT22;27809;51.864;5.646;2023-02-28T15:30:56;7.20;1.00
42141;DHT22;27809;51.864;5.646;2023-02-28T15:33:32;6.90;1.00
42141;DHT22;27809;51.864;5.646;2023-02-28T15:36:15;7.00;1.00
42141;DHT22;27809;51.864;5.646;2023-02-28T15:38:43;6.60;1.00
42141;DHT22;27809;51.864;5.646;2023-02-28T15:41:30;6.60;1.00
42141;DHT22;27809;51.864;5.646;2023-02-28T15:46:44;7.40;1.00
42141;DHT22;27809;51.864;5.646;2023-02-28T15:49:20;6.60;1.00
42141;DHT22;27809;51.864;5.646;2023-02-28T15:51:46;8.80;1.00
42141;DHT22;27809;51.864;5.646;2023-02-28T15:54:24;6.90;1.00
42141;DHT22;27809;51.864;5.646;2023-02-28T15:56:55;6.50;1.00
42141;DHT22;27809;51.864;5.646;2023-02-28T15:59:23;6.40;1.00
42141;DHT22;27809;51.864;5.646;2023-02-28T16:02:21;6.30;1.00
42141;DHT22;27809;51.864;5.646;2023-02-28T16:07:41;6.30;1.10
42141;DHT22;27809;51.864;5.646;2023-02-28T16:10:10;7.40;1.00
42141;DHT22;27809;51.864;5.646;2023-02-28T16:12:38;6.50;2.00
42141;DHT22;27809;51.864;5.646;2023-02-28T16:15:29;6.20;3.00
42141;DHT22;27809;51.864;5.646;2023-02-28T16:17:57;6.50;1.90
42141;DHT22;27809;51.864;5.646;2023-02-28T16:20:25;6.20;1.50
42141;DHT22;27809;51.864;5.646;2023-02-28T16:22:51;5.90;1.70
42141;DHT22;27809;51.864;5.646;2023-02-28T16:25:20;5.70;1.90
42141;DHT22;27809;51.864;5.646;2023-02-28T16:27:48;5.60;1.80
42141;DHT22;27809;51.864;5.646;2023-02-28T16:30:20;5.60;2.60
42141;DHT22;27809;51.864;5.646;2023-02-28T16:32:47;5.70;5.00
42141;DHT22;27809;51.864;5.646;2023-02-28T16:35:13;6.30;1.30
42141;DHT22;27809;51.864;5.646;2023-02-28T16:37:39;5.50;2.30
42141;DHT22;27809;51.864;5.646;2023-02-28T16:40:07;5.50;3.70
42141;DHT22;27809;51.864;5.646;2023-02-28T16:42:33;5.30;5.10
42141;DHT22;27809;51.864;5.646;2023-02-28T16:44:59;5.20;3.90
42141;DHT22;27809;51.864;5.646;2023-02-28T16:47:24;5.20;4.60
42141;DHT22;27809;51.864;5.646;2023-02-28T16:49:52;5.10;5.20
42141;DHT22;27809;51.864;5.646;2023-02-28T16:52:17;5.00;4.50
42141;DHT22;27809;51.864;5.646;2023-02-28T16:54:43;5.00;5.10
42141;DHT22;27809;51.864;5.646;2023-02-28T16:57:19;5.00;5.80
42141;DHT22;27809;51.864;5.646;2023-02-28T16:59:45;4.80;6.80
42141;DHT22;27809;51.864;5.646;2023-02-28T17:02:13;4.60;8.40
42141;DHT22;27809;51.864;5.646;2023-02-28T17:04:39;4.40;8.90
42141;DHT22;27809;51.864;5.646;2023-02-28T17:07:06;4.40;9.40
42141;DHT22;27809;51.864;5.646;2023-02-28T17:09:33;4.10;10.30
42141;DHT22;27809;51.864;5.646;2023-02-28T17:11:59;4.00;11.20
42141;DHT22;27809;51.864;5.646;2023-02-28T17:14:24;3.60;12.60
42141;DHT22;27809;51.864;5.646;2023-02-28T17:16:50;3.30;14.40
42141;DHT22;27809;51.864;5.646;2023-02-28T17:19:16;3.20;13.70
42141;DHT22;27809;51.864;5.646;2023-02-28T17:21:42;3.10;15.60
42141;DHT22;27809;51.864;5.646;2023-02-28T17:24:08;3.20;16.60
42141;DHT22;27809;51.864;5.646;2023-02-28T17:26:34;2.80;17.00
42141;DHT22;27809;51.864;5.646;2023-02-28T17:28:59;2.70;18.80
42141;DHT22;27809;51.864;5.646;2023-02-28T17:31:26;2.70;19.40
42141;DHT22;27809;51.864;5.646;2023-02-28T17:33:52;2.40;20.10
42141;DHT22;27809;51.864;5.646;2023-02-28T17:36:24;2.40;21.10
42141;DHT22;27809;51.864;5.646;2023-02-28T17:38:52;2.30;23.40
42141;DHT22;27809;51.864;5.646;2023-02-28T17:41:18;2.20;24.70
42141;DHT22;27809;51.864;5.646;2023-02-28T17:43:44;2.20;25.30
42141;DHT22;27809;51.864;5.646;2023-02-28T17:46:22;2.20;25.10
42141;DHT22;27809;51.864;5.646;2023-02-28T17:48:52;2.30;25.20
42141;DHT22;27809;51.864;5.646;2023-02-28T17:51:20;2.40;24.50
42141;DHT22;27809;51.864;5.646;2023-02-28T17:53:46;3.40;26.00
42141;DHT22;27809;51.864;5.646;2023-02-28T17:56:13;3.00;23.00
42141;DHT22;27809;51.864;5.646;2023-02-28T17:58:39;5.20;13.90
42141;DHT22;27809;51.864;5.646;2023-02-28T18:01:05;3.50;18.50
42141;DHT22;27809;51.864;5.646;2023-02-28T18:03:30;2.90;22.80
42141;DHT22;27809;51.864;5.646;2023-02-28T18:05:57;2.50;25.70
42141;DHT22;27809;51.864;5.646;2023-02-28T18:08:23;2.20;28.20
42141;DHT22;27809;51.864;5.646;2023-02-28T18:10:49;2.10;29.00